EGTK/OXF METAR and TAF weather

Enter ICAO airport designator
Station Type Date Time Source
EGTK METAR 2021/04/13 07:20 UTC NOAA

EGTK 130720Z 00000KT CAVOK 05/M00 Q1033


Station Type Date Time Source
EGTK Decoded METAR 2021/04/13 07:20 UTC NOAA

Station name not available
Apr 13, 2021 - 03:20 AM EDT / 2021.04.13 0720 UTC
Wind: Calm:0
Visibility: greater than 7 mile(s):0
Temperature: 41 F (5 C)
Dew Point: 32 F (0 C)
Relative Humidity: 70%
Pressure (altimeter): 30.50 in. Hg (1033 hPa)
ob: EGTK 130720Z 00000KT CAVOK 05/M00 Q1033
cycle: 7

Station Type Date Time Source
EGTK TAF UTC NOAA

Error!

Example: see airport list